RJFE Airport Information

Runway Information
Runway 03 Length 6561 ft width 150 ft
Elevation 223 ft Threshold 0 ft Heading 26
Runway 21 Length 6561 ft Width 150 ft
Elevation 273 ft Threshold 0 ft Heading 206
Airport Frequencies
Type RDO Name RDO Frequency 118.35 MHZ
Airport Navaids
Type NDB Name Fukue Frequency 263 KHZ
Type VOR-DME Name Fukue Frequency 115800 KHZ
Airport Weather Information & NOTAM
ADDS - METARS form results

(0957 UTC 08 December 2019)
Data provider http://aviationweather.gov/metar/data/
 
METAR text: RJFE 080900Z 35003KT 9999 FEW030 SCT035 BKN040 10/04 Q1025
Conditions at: RJFE (FUKUE AIRPORT , JP) observed 0900 UTC 08 December 2019
Temperature: 10.0°C (50°F)
Dewpoint: 4.0°C (39°F) [RH = 66%]
Pressure (altimeter): 30.27 inches Hg (1025.0 mb)
Winds: from the N (350 degrees) at 3 MPH (3 knots; 1.5 m/s)
Visibility: 6 or more miles (10+ km)
Ceiling: 4000 feet AGL
Clouds: few clouds at 3000 feet AGL
scattered clouds at 3500 feet AGL
broken clouds at 4000 feet AGL
Weather: no significant weather observed at this time